Kaohsiung International Airport
RCKH : now visible

Airfield :











YOU CAN JOIN US ON...

 
LOGIN :

Register | Disclaimer

   EN    FR    IT 

 









Legend :    VFR   Marginal VFR   IFR   Intensive IFR   Very Intensive IFR
Visi :
Ceiling :
>= 8 km
>= 3000ft
5 to 8 km
1000 to 3000 ft
1500m to 5 km
500 to 1000 ft
800 to 1500m
200 to 500 ft
< 800m
< 200 ft
Symbols :   Thunderstorms  Fog  Heavy snow  Heavy precipitations  Wind > 20 kt






- Airport Elevation : 31 ft
- IATA code : KHH


RCKH - Kaohsiung International

CURRENT METAR :
  • 020200Z 35008KT 310V030 9999 FEW015 25/18 Q1016 NOSIG RMK A3003

EXPIRED METARs :
  • 020130Z 34007KT 310V030 9999 FEW015 24/17 Q1017 NOSIG RMK A3005
  • 020100Z 34006KT 300V020 9999 FEW015 23/17 Q1017 NOSIG RMK A3004
  • 020030Z 35006KT 320V060 9999 FEW015 23/17 Q1016 NOSIG RMK A3003
  • 020000Z 34007KT 9999 FEW015 22/17 Q1016 NOSIG RMK A3003
  • 012330Z 36006KT 9999 FEW015 SCT060 21/17 Q1016 NOSIG RMK A3001

TAF TAF RCKH
Valid from the 02 at 00:00 until the 03 at 06:00 UTC


012300Z 0200/0306 34005KT 9999 FEW015 BKN050 BKN090
BECMG 0202/0204 27008KT
BECMG 0209/0211 35005KT
TEMPO 0220/0224 05005KT 5000 BR FEW010 BKN020 BKN040
BECMG 0301/0303 27008KT
RCAA FIR / Asia



MET'MAP, your aeronautical weather chart ! - Copyright ORBIFLY December 2007 - Disclaimer

ORBIFLY MET'MAP TEAM :

Programming & Development : Alexandra Zaïnal
Original concept : Baudouin d'Aumeries
Technical & hardware support : Manuel Goepfert
Assistance : Marc-Olivier Méhu




SOURCES & CREDITS :

   NOAA       Earth
Advisory